createdAt,value
2019-04-05T00:02:12.999Z,100.00
2019-04-05T00:04:39.303Z,100.00
2019-04-05T00:07:05.429Z,100.00
2019-04-05T00:09:31.982Z,100.00
2019-04-05T00:11:58.214Z,100.00
2019-04-05T00:14:24.392Z,100.00
2019-04-05T00:16:51.005Z,100.00
2019-04-05T00:19:17.283Z,100.00
2019-04-05T00:21:43.418Z,100.00
2019-04-05T00:24:09.976Z,100.00
2019-04-05T00:26:36.126Z,100.00
2019-04-05T00:29:04.271Z,100.00
2019-04-05T00:31:30.562Z,100.00
2019-04-05T00:33:56.801Z,100.00
2019-04-05T00:36:23.375Z,100.00
2019-04-05T00:38:49.527Z,100.00
2019-04-05T00:41:15.702Z,100.00
2019-04-05T00:43:42.245Z,100.00
2019-04-05T00:46:08.601Z,100.00
2019-04-05T00:48:34.789Z,100.00
2019-04-05T00:51:01.272Z,100.00
2019-04-05T00:53:27.430Z,100.00
2019-04-05T00:55:53.572Z,100.00
2019-04-05T00:58:20.206Z,100.00
2019-04-05T01:00:46.396Z,100.00
2019-04-05T01:03:13.322Z,100.00
2019-04-05T01:05:40.164Z,100.00
2019-04-05T01:08:06.329Z,100.00
2019-04-05T01:10:39.498Z,100.00
2019-04-05T01:13:05.771Z,100.00
2019-04-05T01:15:40.708Z,100.00
2019-04-05T01:17:59.983Z,100.00
2019-04-05T01:20:29.739Z,100.00
2019-04-05T01:22:56.753Z,100.00
2019-04-05T01:25:23.246Z,100.00
2019-04-05T01:27:49.612Z,100.00
2019-04-05T01:30:16.241Z,100.00
2019-04-05T01:32:42.452Z,100.00
2019-04-05T01:35:09.093Z,100.00
2019-04-05T01:37:36.553Z,100.00
2019-04-05T01:40:05.227Z,100.00
2019-04-05T01:42:31.441Z,100.00
2019-04-05T01:44:58.125Z,100.00
2019-04-05T01:47:24.380Z,100.00
2019-04-05T01:49:51.707Z,100.00
2019-04-05T01:52:18.299Z,100.00
2019-04-05T01:54:44.449Z,100.00
2019-04-05T01:57:12.273Z,100.00
2019-04-05T01:59:40.250Z,100.00
2019-04-05T02:02:08.120Z,100.00
2019-04-05T02:04:35.719Z,100.00
2019-04-05T02:07:02.383Z,100.00
2019-04-05T02:09:28.531Z,100.00
2019-04-05T02:11:54.774Z,100.00
2019-04-05T02:14:21.263Z,100.00
2019-04-05T02:16:47.420Z,100.00
2019-04-05T02:19:13.679Z,100.00
2019-04-05T02:21:39.820Z,100.00
2019-04-05T02:24:06.375Z,100.00
2019-04-05T02:26:32.631Z,100.00
2019-04-05T02:28:58.920Z,100.00
2019-04-05T02:31:25.569Z,100.00
2019-04-05T02:33:52.346Z,100.00
2019-04-05T02:36:18.649Z,100.00
2019-04-05T02:38:44.916Z,100.00
2019-04-05T02:41:11.683Z,100.00
2019-04-05T02:43:39.592Z,100.00
2019-04-05T02:46:22.136Z,100.00
2019-04-05T02:48:35.899Z,100.00
2019-04-05T02:51:02.878Z,100.00
2019-04-05T02:53:30.449Z,100.00
2019-04-05T02:55:57.361Z,100.00
2019-04-05T02:58:23.866Z,100.00
2019-04-05T03:00:50.155Z,100.00
2019-04-05T03:03:16.824Z,100.00
2019-04-05T03:05:43.362Z,100.00
2019-04-05T03:08:09.898Z,100.00
2019-04-05T03:10:55.171Z,100.00
2019-04-05T03:13:23.039Z,100.00
2019-04-05T03:15:49.957Z,100.00
2019-04-05T03:18:17.367Z,100.00
2019-04-05T03:20:43.576Z,100.00
2019-04-05T03:23:09.837Z,100.00
2019-04-05T03:25:36.486Z,100.00
2019-04-05T03:28:02.609Z,100.00
2019-04-05T03:30:28.853Z,100.00
2019-04-05T03:32:58.011Z,100.00
2019-04-05T03:35:24.339Z,100.00
2019-04-05T03:37:50.469Z,100.00
2019-04-05T03:40:17.295Z,100.00
2019-04-05T03:42:43.678Z,100.00
2019-04-05T03:45:10.139Z,100.00
2019-04-05T03:47:37.097Z,100.00
2019-04-05T03:50:08.863Z,100.00
2019-04-05T03:52:35.095Z,100.00
2019-04-05T03:55:02.003Z,100.00
2019-04-05T03:57:28.394Z,100.00
2019-04-05T03:59:54.619Z,100.00
2019-04-05T04:02:23.490Z,100.00
2019-04-05T04:04:50.536Z,100.00
2019-04-05T04:07:16.702Z,100.00
2019-04-05T04:09:42.815Z,100.00
2019-04-05T04:12:09.178Z,100.00
2019-04-05T04:14:35.453Z,100.00
2019-04-05T04:17:11.997Z,100.00
2019-04-05T04:19:29.991Z,100.00
2019-04-05T04:22:16.858Z,100.00
2019-04-05T04:24:43.344Z,100.00
2019-04-05T04:27:10.318Z,100.00
2019-04-05T04:29:36.965Z,100.00
2019-04-05T04:32:03.862Z,100.00
2019-04-05T04:34:30.506Z,100.00
2019-04-05T04:36:56.803Z,100.00
2019-04-05T04:39:23.294Z,100.00
2019-04-05T04:41:50.610Z,100.00
2019-04-05T04:44:17.853Z,100.00
2019-04-05T04:46:44.284Z,100.00
2019-04-05T04:49:10.530Z,100.00
2019-04-05T04:51:36.942Z,100.00
2019-04-05T04:54:03.750Z,100.00
2019-04-05T04:56:30.008Z,100.00
2019-04-05T04:58:56.149Z,100.00
2019-04-05T05:01:22.752Z,100.00
2019-04-05T05:03:48.883Z,100.00
2019-04-05T05:06:15.294Z,100.00
2019-04-05T05:08:41.927Z,100.00
2019-04-05T05:11:14.466Z,100.00
2019-04-05T05:13:36.330Z,100.00
2019-04-05T05:16:03.119Z,100.00
2019-04-05T05:18:29.303Z,100.00
2019-04-05T05:20:55.442Z,100.00
2019-04-05T05:23:22.052Z,100.00
2019-04-05T05:25:48.409Z,100.00
2019-04-05T05:28:14.809Z,100.00
2019-04-05T05:30:41.763Z,100.00
2019-04-05T05:33:08.097Z,100.00
2019-04-05T05:35:34.453Z,100.00
2019-04-05T05:38:01.509Z,100.00
2019-04-05T05:40:34.854Z,100.00
2019-04-05T05:42:55.813Z,100.00
2019-04-05T05:45:21.974Z,100.00
2019-04-05T05:47:52.097Z,100.00
2019-04-05T05:50:16.996Z,100.00
2019-04-05T05:52:43.148Z,100.00
2019-04-05T05:55:09.549Z,100.00
2019-04-05T05:57:35.991Z,100.00
2019-04-05T06:00:07.219Z,100.00
2019-04-05T06:02:33.649Z,100.00
2019-04-05T06:05:00.092Z,100.00
2019-04-05T06:07:26.411Z,100.00
2019-04-05T06:09:52.542Z,100.00
2019-04-05T06:12:19.115Z,100.00
2019-04-05T06:14:45.247Z,100.00
2019-04-05T06:17:11.401Z,100.00
2019-04-05T06:19:37.865Z,100.00
2019-04-05T06:22:04.047Z,100.00
2019-04-05T06:24:30.211Z,100.00
2019-04-05T06:26:56.751Z,100.00
2019-04-05T06:29:23.200Z,100.00
2019-04-05T06:31:49.330Z,100.00
2019-04-05T06:34:16.005Z,100.00
2019-04-05T06:36:42.126Z,100.00
2019-04-05T06:39:08.265Z,100.00
2019-04-05T06:41:34.298Z,100.00
2019-04-05T06:44:00.341Z,100.00
2019-04-05T06:46:26.378Z,100.00
2019-04-05T06:48:53.172Z,100.00
2019-04-05T06:51:19.185Z,100.00
2019-04-05T06:53:45.535Z,100.00
2019-04-05T06:56:12.136Z,100.00
2019-04-05T06:58:38.295Z,100.00
2019-04-05T07:01:04.565Z,100.00
2019-04-05T07:03:31.080Z,100.00
2019-04-05T07:05:57.369Z,100.00
2019-04-05T07:08:23.598Z,100.00
2019-04-05T07:10:49.745Z,100.00
2019-04-05T07:13:16.157Z,100.00
2019-04-05T07:15:42.211Z,100.00
2019-04-05T07:18:08.773Z,100.00
2019-04-05T07:20:34.938Z,100.00
2019-04-05T07:23:01.081Z,100.00
2019-04-05T07:25:29.533Z,100.00
2019-04-05T07:27:55.990Z,100.00
2019-04-05T07:30:22.142Z,100.00
2019-04-05T07:32:48.754Z,100.00
2019-04-05T07:35:15.268Z,100.00
2019-04-05T07:37:41.738Z,100.00
2019-04-05T07:40:08.434Z,100.00
2019-04-05T07:42:34.576Z,100.00
2019-04-05T07:45:00.829Z,100.00
2019-04-05T07:47:27.251Z,100.00
2019-04-05T07:49:53.393Z,100.00
2019-04-05T07:52:19.512Z,100.00
2019-04-05T07:54:46.118Z,100.00
2019-04-05T07:57:12.373Z,100.00
2019-04-05T07:59:38.715Z,100.00
2019-04-05T08:02:05.007Z,100.00
2019-04-05T08:04:31.234Z,100.00
2019-04-05T08:06:59.883Z,100.00
2019-04-05T08:09:26.598Z,100.00
2019-04-05T08:12:00.650Z,100.00
2019-04-05T08:14:27.299Z,100.00
2019-04-05T08:16:54.869Z,100.00
2019-04-05T08:19:21.154Z,100.00
2019-04-05T08:21:47.641Z,100.00
2019-04-05T08:24:14.148Z,100.00
2019-04-05T08:26:40.546Z,100.00
2019-04-05T08:29:07.377Z,100.00
2019-04-05T08:31:33.789Z,100.00
2019-04-05T08:34:00.034Z,100.00
2019-04-05T08:36:26.341Z,100.00
2019-04-05T08:38:53.192Z,100.00
2019-04-05T08:41:19.946Z,100.00
2019-04-05T08:43:47.352Z,100.00
2019-04-05T08:46:13.697Z,100.00
2019-04-05T08:48:40.004Z,100.00
2019-04-05T08:51:06.569Z,100.00
2019-04-05T08:53:32.976Z,100.00
2019-04-05T08:55:59.423Z,100.00
2019-04-05T08:58:33.284Z,100.00
2019-04-05T09:00:53.853Z,100.00
2019-04-05T09:03:20.223Z,100.00
2019-04-05T09:05:46.805Z,100.00
2019-04-05T09:08:13.364Z,100.00
2019-04-05T09:10:40.736Z,100.00
2019-04-05T09:13:07.198Z,100.00
2019-04-05T09:15:33.324Z,100.00
2019-04-05T09:17:59.660Z,100.00
2019-04-05T09:20:26.139Z,100.00
2019-04-05T09:22:52.192Z,100.00
2019-04-05T09:25:19.790Z,100.00
2019-04-05T09:27:46.503Z,100.00
2019-04-05T09:30:12.795Z,100.00
2019-04-05T09:32:38.818Z,100.00
2019-04-05T09:35:05.560Z,100.00
2019-04-05T09:37:31.788Z,100.00
2019-04-05T09:39:58.171Z,100.00
2019-04-05T09:42:24.566Z,100.00
2019-04-05T09:44:51.698Z,100.00
2019-04-05T09:47:17.834Z,100.00
2019-04-05T09:49:44.166Z,100.00
2019-04-05T09:52:10.425Z,100.00
2019-04-05T09:54:36.783Z,100.00
2019-04-05T09:57:03.339Z,100.00
2019-04-05T09:59:29.566Z,100.00
2019-04-05T10:01:55.865Z,100.00
2019-04-05T10:04:22.282Z,100.00
2019-04-05T10:06:48.567Z,100.00
2019-04-05T10:09:14.705Z,100.00
2019-04-05T10:11:41.185Z,100.00
2019-04-05T10:14:07.487Z,100.00
2019-04-05T10:16:33.588Z,100.00
2019-04-05T10:18:59.763Z,100.00
2019-04-05T10:21:25.908Z,100.00
2019-04-05T10:23:52.062Z,100.00
2019-04-05T10:26:18.645Z,100.00
2019-04-05T10:28:45.060Z,100.00
2019-04-05T10:31:11.408Z,100.00
2019-04-05T10:33:37.901Z,100.00
2019-04-05T10:36:04.113Z,100.00
2019-04-05T10:38:30.440Z,100.00
2019-04-05T10:40:56.899Z,100.00
2019-04-05T10:43:24.200Z,100.00
2019-04-05T10:45:50.811Z,100.00
2019-04-05T10:48:17.509Z,100.00
2019-04-05T10:50:43.827Z,100.00
2019-04-05T10:53:10.417Z,100.00
2019-04-05T10:55:37.568Z,100.00
2019-04-05T10:58:04.358Z,100.00
2019-04-05T11:00:30.489Z,100.00
2019-04-05T11:02:56.616Z,100.00
2019-04-05T11:05:23.653Z,100.00
2019-04-05T11:07:54.997Z,100.00
2019-04-05T11:10:22.579Z,100.00
2019-04-05T11:12:50.168Z,100.00
2019-04-05T11:15:17.050Z,100.00
2019-04-05T11:17:46.395Z,100.00
2019-04-05T11:20:21.350Z,100.00
2019-04-05T11:22:41.119Z,100.00
2019-04-05T11:25:08.143Z,100.00
2019-04-05T11:27:40.151Z,100.00
2019-04-05T11:30:08.691Z,100.00
2019-04-05T11:32:35.033Z,100.00
2019-04-05T11:35:01.426Z,100.00
2019-04-05T11:37:28.989Z,100.00
2019-04-05T11:39:56.004Z,100.00
2019-04-05T11:42:26.442Z,100.00
2019-04-05T11:44:54.839Z,100.00
2019-04-05T11:47:21.579Z,100.00
2019-04-05T11:49:50.386Z,100.00
2019-04-05T11:52:17.391Z,100.00
2019-04-05T11:54:43.841Z,100.00
2019-04-05T11:57:11.678Z,100.00
2019-04-05T11:59:37.807Z,100.00
2019-04-05T12:02:14.003Z,100.00
2019-04-05T12:04:42.699Z,100.00
2019-04-05T12:07:08.636Z,100.00
2019-04-05T12:09:34.775Z,100.00
2019-04-05T12:12:01.084Z,100.00
2019-04-05T12:14:30.406Z,100.00
2019-04-05T12:16:55.760Z,100.00
2019-04-05T12:19:21.973Z,100.00
2019-04-05T12:21:48.623Z,100.00
2019-04-05T12:24:14.754Z,100.00
2019-04-05T12:26:42.633Z,100.00
2019-04-05T12:29:09.624Z,100.00
2019-04-05T12:31:35.988Z,100.00
2019-04-05T12:34:02.422Z,100.00
2019-04-05T12:36:28.995Z,100.00
2019-04-05T12:38:55.497Z,100.00
2019-04-05T12:41:21.654Z,100.00
2019-04-05T12:43:50.957Z,100.00
2019-04-05T12:46:16.699Z,100.00
2019-04-05T12:48:45.526Z,100.00
2019-04-05T12:51:13.146Z,100.00
2019-04-05T12:53:40.273Z,100.00
2019-04-05T12:56:06.411Z,100.00
2019-04-05T12:58:35.291Z,100.00
2019-04-05T13:01:08.132Z,100.00
2019-04-05T13:03:35.200Z,100.00
2019-04-05T13:06:03.004Z,100.00
2019-04-05T13:08:36.867Z,100.00
2019-04-05T13:11:07.789Z,100.00
2019-04-05T13:13:34.308Z,100.00
2019-04-05T13:16:09.791Z,100.00
2019-04-05T13:18:35.002Z,100.00
2019-04-05T13:21:14.304Z,100.00
2019-04-05T13:23:38.999Z,100.00
2019-04-05T13:26:07.184Z,100.00
2019-04-05T13:28:35.752Z,100.00
2019-04-05T13:31:05.168Z,100.00
2019-04-05T13:33:37.601Z,100.00
2019-04-05T13:36:09.248Z,100.00
2019-04-05T13:38:54.199Z,100.00
2019-04-05T13:41:11.393Z,100.00
2019-04-05T13:43:37.627Z,100.00
2019-04-05T13:46:04.083Z,100.00
2019-04-05T13:48:30.324Z,100.00
2019-04-05T13:50:56.680Z,100.00
2019-04-05T13:53:23.104Z,100.00
2019-04-05T13:55:50.435Z,100.00
2019-04-05T13:58:16.718Z,100.00
2019-04-05T14:00:43.236Z,100.00
2019-04-05T14:03:09.410Z,100.00
2019-04-05T14:05:35.606Z,100.00
2019-04-05T14:08:10.438Z,100.00
2019-04-05T14:10:30.350Z,100.00
2019-04-05T14:12:56.572Z,100.00
2019-04-05T14:15:23.300Z,100.00
2019-04-05T14:17:49.787Z,100.00
2019-04-05T14:20:19.559Z,100.00
2019-04-05T14:22:45.029Z,100.00
2019-04-05T14:25:11.936Z,100.00
2019-04-05T14:27:38.245Z,100.00
2019-04-05T14:30:05.450Z,100.00
2019-04-05T14:32:31.815Z,100.00
2019-04-05T14:34:59.016Z,100.00
2019-04-05T14:37:25.365Z,100.00
2019-04-05T14:39:51.667Z,100.00
2019-04-05T14:55:09.849Z,100.00
2019-04-05T14:57:36.637Z,100.00
2019-04-05T15:00:06.143Z,100.00
2019-04-05T15:02:32.582Z,100.00
2019-04-05T15:04:59.139Z,100.00
2019-04-05T15:07:25.416Z,100.00
2019-04-05T15:09:54.649Z,100.00
2019-04-05T15:12:20.082Z,100.00
2019-04-05T15:14:46.340Z,100.00
2019-04-05T15:17:12.491Z,100.00
2019-04-05T15:19:39.015Z,100.00
2019-04-05T15:22:06.328Z,100.00
2019-04-05T15:24:32.793Z,99.15
2019-04-05T15:26:59.299Z,99.53
2019-04-05T15:29:26.117Z,99.95
2019-04-05T15:31:53.405Z,100.00
2019-04-05T15:34:21.431Z,100.00
2019-04-05T15:36:47.684Z,100.00
2019-04-05T15:39:14.035Z,100.00
2019-04-05T15:41:42.464Z,100.00
2019-04-05T15:44:09.245Z,100.00
2019-04-05T15:46:35.470Z,100.00
2019-04-05T15:49:02.904Z,100.00
2019-04-05T15:51:29.047Z,100.00
2019-04-05T15:53:55.345Z,99.73
2019-04-05T15:56:21.913Z,97.60
2019-04-05T15:58:49.056Z,98.55
2019-04-05T16:01:15.894Z,97.87
2019-04-05T16:03:42.231Z,97.92
2019-04-05T16:06:08.594Z,96.94
2019-04-05T16:08:35.003Z,97.58
2019-04-05T16:11:01.169Z,96.87
2019-04-05T16:13:27.407Z,97.34
2019-04-05T16:15:53.787Z,97.83
2019-04-05T16:18:20.028Z,97.77
2019-04-05T16:20:46.485Z,99.33
2019-04-05T16:23:12.710Z,99.46
2019-04-05T16:25:39.230Z,100.00
2019-04-05T16:28:05.505Z,100.00
2019-04-05T16:30:33.949Z,100.00
2019-04-05T16:33:00.418Z,100.00
2019-04-05T16:35:27.080Z,100.00
2019-04-05T16:37:53.268Z,100.00
2019-04-05T16:40:20.266Z,100.00
2019-04-05T16:42:46.806Z,100.00
2019-04-05T16:45:13.678Z,100.00
2019-04-05T16:47:40.203Z,100.00
2019-04-05T16:50:07.849Z,100.00
2019-04-05T16:52:44.115Z,100.00
2019-04-05T16:55:04.058Z,100.00
2019-04-05T16:57:30.520Z,100.00
2019-04-05T16:59:56.809Z,100.00
2019-04-05T17:02:23.051Z,100.00
2019-04-05T17:04:49.549Z,100.00
2019-04-05T17:07:15.697Z,100.00
2019-04-05T17:09:41.989Z,100.00
2019-04-05T17:12:08.707Z,100.00
2019-04-05T17:14:34.869Z,100.00
2019-04-05T17:17:01.062Z,100.00
2019-04-05T17:19:27.322Z,100.00
2019-04-05T17:21:53.777Z,100.00
2019-04-05T17:24:20.085Z,100.00
2019-04-05T17:26:46.587Z,100.00
2019-04-05T17:29:12.899Z,100.00
2019-04-05T17:31:39.277Z,100.00
2019-04-05T17:34:05.416Z,100.00
2019-04-05T17:36:31.626Z,100.00
2019-04-05T17:38:58.257Z,100.00
2019-04-05T17:41:24.865Z,100.00
2019-04-05T17:43:51.065Z,100.00
2019-04-05T17:46:17.320Z,100.00
2019-04-05T17:48:43.590Z,100.00
2019-04-05T17:51:10.212Z,100.00
2019-04-05T17:53:36.403Z,100.00
2019-04-05T17:56:03.350Z,100.00
2019-04-05T17:58:32.107Z,100.00
2019-04-05T18:00:58.882Z,100.00
2019-04-05T18:03:26.262Z,100.00
2019-04-05T18:05:59.971Z,100.00
2019-04-05T18:08:26.533Z,100.00
2019-04-05T18:10:53.434Z,100.00
2019-04-05T18:13:19.739Z,100.00
2019-04-05T18:15:52.636Z,100.00
2019-04-05T18:18:16.609Z,100.00
2019-04-05T18:20:48.039Z,100.00
2019-04-05T18:23:24.271Z,100.00
2019-04-05T18:25:45.198Z,100.00
2019-04-05T18:28:11.967Z,100.00
2019-04-05T18:30:38.584Z,100.00
2019-04-05T18:33:05.747Z,100.00
2019-04-05T18:35:31.876Z,100.00
2019-04-05T18:37:58.184Z,100.00
2019-04-05T18:40:25.510Z,100.00
2019-04-05T18:42:51.725Z,100.00
2019-04-05T18:45:17.840Z,100.00
2019-04-05T18:47:44.368Z,100.00
2019-04-05T18:50:10.726Z,100.00
2019-04-05T18:52:36.973Z,100.00
2019-04-05T18:55:06.438Z,100.00
2019-04-05T18:57:32.705Z,100.00
2019-04-05T18:59:59.023Z,100.00
2019-04-05T19:02:27.863Z,100.00
2019-04-05T19:04:53.993Z,100.00
2019-04-05T19:07:22.319Z,100.00
2019-04-05T19:09:48.550Z,100.00
2019-04-05T19:12:14.773Z,100.00
2019-04-05T19:14:41.285Z,100.00
2019-04-05T19:17:07.653Z,100.00
2019-04-05T19:19:34.026Z,100.00
2019-04-05T19:22:00.461Z,100.00
2019-04-05T19:24:27.137Z,100.00
2019-04-05T19:26:53.461Z,100.00
2019-04-05T19:29:19.629Z,100.00
2019-04-05T19:49:05.361Z,100.00
2019-04-05T19:51:35.939Z,100.00
2019-04-05T19:54:03.320Z,100.00
2019-04-05T19:56:29.694Z,100.00
2019-04-05T19:58:56.258Z,100.00
2019-04-05T20:01:22.644Z,100.00
2019-04-05T20:03:48.794Z,100.00
2019-04-05T20:06:15.199Z,100.00
2019-04-05T20:08:41.314Z,100.00
2019-04-05T20:11:07.524Z,100.00
2019-04-05T20:13:34.125Z,100.00
2019-04-05T20:16:00.248Z,100.00
2019-04-05T20:18:26.419Z,100.00
2019-04-05T20:20:53.122Z,100.00
2019-04-05T20:23:19.548Z,100.00
2019-04-05T20:25:45.953Z,100.00
2019-04-05T20:28:12.569Z,100.00
2019-04-05T20:30:39.190Z,100.00
2019-04-05T20:33:05.566Z,100.00
2019-04-05T20:35:32.020Z,100.00
2019-04-05T20:37:58.457Z,100.00
2019-04-05T20:40:24.608Z,100.00
2019-04-05T20:42:51.290Z,100.00
2019-04-05T20:45:17.455Z,100.00
2019-04-05T20:47:43.822Z,100.00
2019-04-05T20:50:10.791Z,100.00
2019-04-05T20:52:36.864Z,100.00
2019-04-05T20:55:05.184Z,100.00
2019-04-05T20:57:31.417Z,100.00
2019-04-05T20:59:57.719Z,100.00
2019-04-05T21:02:23.845Z,100.00
2019-04-05T21:04:50.268Z,100.00
2019-04-05T21:07:16.405Z,100.00
2019-04-05T21:09:42.764Z,100.00
2019-04-05T21:12:09.163Z,100.00
2019-04-05T21:14:35.612Z,100.00
2019-04-05T21:17:01.842Z,100.00
2019-04-05T21:19:28.593Z,100.00
2019-04-05T21:21:54.818Z,100.00
2019-04-05T21:24:21.112Z,100.00
2019-04-05T21:26:47.270Z,100.00
2019-04-05T21:29:13.453Z,100.00
2019-04-05T21:31:39.934Z,100.00
2019-04-05T21:34:06.087Z,100.00
2019-04-05T21:36:32.289Z,100.00
2019-04-05T21:38:58.800Z,100.00
2019-04-05T21:41:25.009Z,100.00
2019-04-05T21:43:51.394Z,100.00
2019-04-05T21:46:17.882Z,100.00
2019-04-05T21:48:43.996Z,100.00
2019-04-05T21:51:10.434Z,100.00
2019-04-05T21:53:36.981Z,100.00
2019-04-05T21:56:03.260Z,100.00
2019-04-05T21:58:29.549Z,100.00
2019-04-05T22:01:01.478Z,100.00
2019-04-05T22:03:29.129Z,100.00
2019-04-05T22:05:55.314Z,100.00
2019-04-05T22:08:22.138Z,100.00
2019-04-05T22:10:51.213Z,100.00
2019-04-05T22:13:17.385Z,100.00
2019-04-05T22:15:43.934Z,100.00
2019-04-05T22:18:10.085Z,100.00
2019-04-05T22:20:36.329Z,100.00
2019-04-05T22:23:05.023Z,100.00
2019-04-05T22:25:31.256Z,100.00
2019-04-05T22:27:57.443Z,100.00
2019-04-05T22:30:23.962Z,100.00
2019-04-05T22:32:50.097Z,100.00
2019-04-05T22:35:16.270Z,100.00
2019-04-05T22:37:42.447Z,100.00
2019-04-05T22:40:08.731Z,100.00
2019-04-05T22:42:34.880Z,100.00
2019-04-05T22:45:01.113Z,100.00
2019-04-05T22:47:27.156Z,100.00
2019-04-05T22:49:53.560Z,100.00
2019-04-05T22:52:19.706Z,100.00
2019-04-05T22:54:46.348Z,100.00
2019-04-05T22:57:12.575Z,100.00
2019-04-05T22:59:38.780Z,100.00
2019-04-05T23:02:05.259Z,100.00
2019-04-05T23:04:31.325Z,100.00
2019-04-05T23:06:57.583Z,100.00
2019-04-05T23:09:24.285Z,100.00
2019-04-05T23:11:50.468Z,100.00
2019-04-05T23:14:16.680Z,100.00
2019-04-05T23:16:43.227Z,100.00
2019-04-05T23:19:09.570Z,100.00
2019-04-05T23:21:35.716Z,100.00
2019-04-05T23:24:02.346Z,100.00
2019-04-05T23:26:28.951Z,100.00
2019-04-05T23:28:55.285Z,100.00
2019-04-05T23:31:21.826Z,100.00
2019-04-05T23:33:48.069Z,100.00
2019-04-05T23:36:14.240Z,100.00
2019-04-05T23:38:40.996Z,100.00
2019-04-05T23:41:07.354Z,100.00
2019-04-05T23:43:33.796Z,100.00
2019-04-05T23:46:00.386Z,100.00
2019-04-05T23:48:26.469Z,100.00
2019-04-05T23:50:52.723Z,100.00
2019-04-05T23:53:19.158Z,100.00
2019-04-05T23:55:45.378Z,100.00
2019-04-05T23:58:11.659Z,100.00
